sensor_id;sensor_type;location;lat;lon;timestamp;P1;durP1;ratioP1;P2;durP2;ratioP2
51266;SDS011;37338;47.426;19.204;2023-04-25T00:01:22;1.10;;;0.83;;
51266;SDS011;37338;47.426;19.204;2023-04-25T00:03:48;1.37;;;1.13;;
51266;SDS011;37338;47.426;19.204;2023-04-25T00:06:13;3.23;;;1.00;;
51266;SDS011;37338;47.426;19.204;2023-04-25T00:08:39;1.30;;;1.17;;
51266;SDS011;37338;47.426;19.204;2023-04-25T00:11:05;2.23;;;1.00;;
51266;SDS011;37338;47.426;19.204;2023-04-25T00:13:30;1.60;;;1.17;;
51266;SDS011;37338;47.426;19.204;2023-04-25T00:15:55;2.13;;;1.43;;
51266;SDS011;37338;47.426;19.204;2023-04-25T00:18:21;1.57;;;1.20;;
51266;SDS011;37338;47.426;19.204;2023-04-25T00:20:47;2.13;;;1.90;;
51266;SDS011;37338;47.426;19.204;2023-04-25T00:23:13;1.43;;;1.10;;
51266;SDS011;37338;47.426;19.204;2023-04-25T00:25:45;2.30;;;1.00;;
51266;SDS011;37338;47.426;19.204;2023-04-25T00:28:11;2.27;;;1.20;;
51266;SDS011;37338;47.426;19.204;2023-04-25T00:30:37;1.17;;;1.00;;
51266;SDS011;37338;47.426;19.204;2023-04-25T00:33:03;1.13;;;1.03;;
51266;SDS011;37338;47.426;19.204;2023-04-25T00:35:29;2.47;;;1.10;;
51266;SDS011;37338;47.426;19.204;2023-04-25T00:37:54;1.27;;;0.90;;
51266;SDS011;37338;47.426;19.204;2023-04-25T00:40:20;1.33;;;0.73;;
51266;SDS011;37338;47.426;19.204;2023-04-25T00:42:45;2.63;;;0.63;;
51266;SDS011;37338;47.426;19.204;2023-04-25T00:45:12;1.40;;;0.80;;
51266;SDS011;37338;47.426;19.204;2023-04-25T00:47:39;6.40;;;1.27;;
51266;SDS011;37338;47.426;19.204;2023-04-25T00:50:05;1.20;;;1.10;;
51266;SDS011;37338;47.426;19.204;2023-04-25T00:52:31;1.23;;;1.07;;
51266;SDS011;37338;47.426;19.204;2023-04-25T00:54:57;2.13;;;1.27;;
51266;SDS011;37338;47.426;19.204;2023-04-25T00:57:22;1.00;;;0.90;;
51266;SDS011;37338;47.426;19.204;2023-04-25T00:59:47;1.47;;;1.17;;
51266;SDS011;37338;47.426;19.204;2023-04-25T01:02:14;1.47;;;1.37;;
51266;SDS011;37338;47.426;19.204;2023-04-25T01:04:39;4.03;;;1.20;;
51266;SDS011;37338;47.426;19.204;2023-04-25T01:07:05;1.30;;;1.20;;
51266;SDS011;37338;47.426;19.204;2023-04-25T01:09:30;1.20;;;1.10;;
51266;SDS011;37338;47.426;19.204;2023-04-25T01:11:57;2.80;;;1.50;;
51266;SDS011;37338;47.426;19.204;2023-04-25T01:14:22;1.67;;;1.40;;
51266;SDS011;37338;47.426;19.204;2023-04-25T01:16:48;3.00;;;1.20;;
51266;SDS011;37338;47.426;19.204;2023-04-25T01:19:13;2.40;;;1.30;;
51266;SDS011;37338;47.426;19.204;2023-04-25T01:21:41;2.50;;;1.37;;
51266;SDS011;37338;47.426;19.204;2023-04-25T01:24:07;1.50;;;1.40;;
51266;SDS011;37338;47.426;19.204;2023-04-25T01:26:32;1.40;;;1.30;;
51266;SDS011;37338;47.426;19.204;2023-04-25T01:28:58;4.07;;;1.50;;
51266;SDS011;37338;47.426;19.204;2023-04-25T01:31:24;1.63;;;1.53;;
51266;SDS011;37338;47.426;19.204;2023-04-25T01:33:50;2.70;;;2.07;;
51266;SDS011;37338;47.426;19.204;2023-04-25T01:36:15;2.67;;;1.57;;
51266;SDS011;37338;47.426;19.204;2023-04-25T01:38:41;3.60;;;1.80;;
51266;SDS011;37338;47.426;19.204;2023-04-25T01:41:08;1.90;;;1.70;;
51266;SDS011;37338;47.426;19.204;2023-04-25T01:43:34;1.57;;;1.47;;
51266;SDS011;37338;47.426;19.204;2023-04-25T01:46:00;2.47;;;1.70;;
51266;SDS011;37338;47.426;19.204;2023-04-25T01:48:26;3.50;;;1.70;;
51266;SDS011;37338;47.426;19.204;2023-04-25T01:50:51;3.73;;;2.00;;
51266;SDS011;37338;47.426;19.204;2023-04-25T01:53:17;2.43;;;2.23;;
51266;SDS011;37338;47.426;19.204;2023-04-25T01:55:42;4.17;;;1.93;;
51266;SDS011;37338;47.426;19.204;2023-04-25T01:58:08;2.87;;;2.17;;
51266;SDS011;37338;47.426;19.204;2023-04-25T02:00:34;2.47;;;2.10;;
51266;SDS011;37338;47.426;19.204;2023-04-25T02:03:03;3.37;;;1.90;;
51266;SDS011;37338;47.426;19.204;2023-04-25T02:05:28;2.40;;;2.20;;
51266;SDS011;37338;47.426;19.204;2023-04-25T02:07:54;1.97;;;1.80;;
51266;SDS011;37338;47.426;19.204;2023-04-25T02:10:20;2.33;;;2.13;;
51266;SDS011;37338;47.426;19.204;2023-04-25T02:12:45;2.03;;;1.83;;
51266;SDS011;37338;47.426;19.204;2023-04-25T02:15:10;4.17;;;2.17;;
51266;SDS011;37338;47.426;19.204;2023-04-25T02:17:36;2.70;;;2.23;;
51266;SDS011;37338;47.426;19.204;2023-04-25T02:20:01;2.47;;;2.17;;
51266;SDS011;37338;47.426;19.204;2023-04-25T02:22:27;2.40;;;1.87;;
51266;SDS011;37338;47.426;19.204;2023-04-25T02:24:55;2.67;;;2.23;;
51266;SDS011;37338;47.426;19.204;2023-04-25T02:27:20;4.20;;;1.87;;
51266;SDS011;37338;47.426;19.204;2023-04-25T02:29:46;3.67;;;1.87;;
51266;SDS011;37338;47.426;19.204;2023-04-25T02:32:11;2.30;;;2.10;;
51266;SDS011;37338;47.426;19.204;2023-04-25T02:34:37;6.97;;;2.23;;
51266;SDS011;37338;47.426;19.204;2023-04-25T02:37:02;3.13;;;2.07;;
51266;SDS011;37338;47.426;19.204;2023-04-25T02:39:27;3.60;;;2.20;;
51266;SDS011;37338;47.426;19.204;2023-04-25T02:41:53;2.03;;;1.73;;
51266;SDS011;37338;47.426;19.204;2023-04-25T02:44:18;2.70;;;1.60;;
51266;SDS011;37338;47.426;19.204;2023-04-25T02:46:44;1.90;;;1.67;;
51266;SDS011;37338;47.426;19.204;2023-04-25T02:49:09;6.33;;;2.07;;
51266;SDS011;37338;47.426;19.204;2023-04-25T02:51:34;1.80;;;1.70;;
51266;SDS011;37338;47.426;19.204;2023-04-25T02:54:00;2.20;;;2.00;;
51266;SDS011;37338;47.426;19.204;2023-04-25T02:56:25;2.83;;;2.10;;
51266;SDS011;37338;47.426;19.204;2023-04-25T02:58:52;2.73;;;2.03;;
51266;SDS011;37338;47.426;19.204;2023-04-25T03:01:17;4.60;;;2.07;;
51266;SDS011;37338;47.426;19.204;2023-04-25T03:03:42;3.33;;;1.30;;
51266;SDS011;37338;47.426;19.204;2023-04-25T03:06:08;2.27;;;1.30;;
51266;SDS011;37338;47.426;19.204;2023-04-25T03:08:33;1.73;;;1.30;;
51266;SDS011;37338;47.426;19.204;2023-04-25T03:10:59;1.83;;;1.57;;
51266;SDS011;37338;47.426;19.204;2023-04-25T03:13:25;2.10;;;1.40;;
51266;SDS011;37338;47.426;19.204;2023-04-25T03:15:50;2.17;;;1.17;;
51266;SDS011;37338;47.426;19.204;2023-04-25T03:18:16;1.43;;;0.90;;
51266;SDS011;37338;47.426;19.204;2023-04-25T03:20:41;1.43;;;1.10;;
51266;SDS011;37338;47.426;19.204;2023-04-25T03:23:07;1.93;;;1.37;;
51266;SDS011;37338;47.426;19.204;2023-04-25T03:25:33;1.70;;;1.30;;
51266;SDS011;37338;47.426;19.204;2023-04-25T03:27:58;1.20;;;0.87;;
51266;SDS011;37338;47.426;19.204;2023-04-25T03:30:24;3.47;;;1.37;;
51266;SDS011;37338;47.426;19.204;2023-04-25T03:32:49;2.10;;;1.90;;
51266;SDS011;37338;47.426;19.204;2023-04-25T03:35:14;3.30;;;2.07;;
51266;SDS011;37338;47.426;19.204;2023-04-25T03:37:40;1.33;;;1.23;;
51266;SDS011;37338;47.426;19.204;2023-04-25T03:40:07;2.70;;;1.70;;
51266;SDS011;37338;47.426;19.204;2023-04-25T03:42:32;3.50;;;2.30;;
51266;SDS011;37338;47.426;19.204;2023-04-25T03:44:58;1.93;;;1.77;;
51266;SDS011;37338;47.426;19.204;2023-04-25T03:47:23;5.70;;;2.17;;
51266;SDS011;37338;47.426;19.204;2023-04-25T03:49:48;4.07;;;1.73;;
51266;SDS011;37338;47.426;19.204;2023-04-25T03:52:16;3.77;;;1.70;;
51266;SDS011;37338;47.426;19.204;2023-04-25T03:54:42;3.03;;;1.80;;
51266;SDS011;37338;47.426;19.204;2023-04-25T03:57:07;1.90;;;1.30;;
51266;SDS011;37338;47.426;19.204;2023-04-25T03:59:32;4.30;;;1.63;;
51266;SDS011;37338;47.426;19.204;2023-04-25T04:01:58;4.47;;;1.60;;
51266;SDS011;37338;47.426;19.204;2023-04-25T04:04:23;3.57;;;1.17;;
51266;SDS011;37338;47.426;19.204;2023-04-25T04:06:48;1.57;;;1.43;;
51266;SDS011;37338;47.426;19.204;2023-04-25T04:09:14;1.90;;;1.37;;
51266;SDS011;37338;47.426;19.204;2023-04-25T04:11:40;1.40;;;1.20;;
51266;SDS011;37338;47.426;19.204;2023-04-25T04:14:06;2.87;;;1.30;;
51266;SDS011;37338;47.426;19.204;2023-04-25T04:16:31;3.00;;;1.03;;
51266;SDS011;37338;47.426;19.204;2023-04-25T04:18:57;1.50;;;1.30;;
51266;SDS011;37338;47.426;19.204;2023-04-25T04:21:22;2.00;;;1.20;;
51266;SDS011;37338;47.426;19.204;2023-04-25T04:23:48;3.93;;;1.60;;
51266;SDS011;37338;47.426;19.204;2023-04-25T04:26:13;1.90;;;1.50;;
51266;SDS011;37338;47.426;19.204;2023-04-25T04:28:41;2.20;;;1.33;;
51266;SDS011;37338;47.426;19.204;2023-04-25T04:31:07;3.40;;;1.67;;
51266;SDS011;37338;47.426;19.204;2023-04-25T04:33:34;2.50;;;1.30;;
51266;SDS011;37338;47.426;19.204;2023-04-25T04:36:00;3.67;;;1.30;;
51266;SDS011;37338;47.426;19.204;2023-04-25T04:38:25;5.83;;;2.40;;
51266;SDS011;37338;47.426;19.204;2023-04-25T04:40:51;4.60;;;1.63;;
51266;SDS011;37338;47.426;19.204;2023-04-25T04:43:17;3.13;;;1.77;;
51266;SDS011;37338;47.426;19.204;2023-04-25T04:45:43;2.50;;;1.67;;
51266;SDS011;37338;47.426;19.204;2023-04-25T04:48:09;2.67;;;1.80;;
51266;SDS011;37338;47.426;19.204;2023-04-25T04:50:36;2.93;;;1.47;;
51266;SDS011;37338;47.426;19.204;2023-04-25T04:53:02;2.93;;;1.67;;
51266;SDS011;37338;47.426;19.204;2023-04-25T04:55:28;1.57;;;1.47;;
51266;SDS011;37338;47.426;19.204;2023-04-25T04:57:54;1.90;;;1.53;;
51266;SDS011;37338;47.426;19.204;2023-04-25T05:00:19;3.67;;;1.50;;
51266;SDS011;37338;47.426;19.204;2023-04-25T05:02:45;2.27;;;1.80;;
51266;SDS011;37338;47.426;19.204;2023-04-25T05:05:11;3.40;;;1.80;;
51266;SDS011;37338;47.426;19.204;2023-04-25T05:07:36;1.80;;;1.70;;
51266;SDS011;37338;47.426;19.204;2023-04-25T05:10:02;4.10;;;1.23;;
51266;SDS011;37338;47.426;19.204;2023-04-25T05:12:28;1.40;;;1.27;;
51266;SDS011;37338;47.426;19.204;2023-04-25T05:14:53;1.40;;;1.00;;
51266;SDS011;37338;47.426;19.204;2023-04-25T05:17:19;1.70;;;1.03;;
51266;SDS011;37338;47.426;19.204;2023-04-25T05:19:44;2.30;;;1.70;;
51266;SDS011;37338;47.426;19.204;2023-04-25T05:22:09;1.50;;;1.20;;
51266;SDS011;37338;47.426;19.204;2023-04-25T05:24:35;2.77;;;1.27;;
51266;SDS011;37338;47.426;19.204;2023-04-25T05:27:00;14.87;;;2.10;;
51266;SDS011;37338;47.426;19.204;2023-04-25T05:29:26;1.10;;;0.87;;
51266;SDS011;37338;47.426;19.204;2023-04-25T05:31:51;1.93;;;1.40;;
51266;SDS011;37338;47.426;19.204;2023-04-25T05:34:17;1.53;;;1.40;;
51266;SDS011;37338;47.426;19.204;2023-04-25T05:36:43;2.10;;;1.27;;
51266;SDS011;37338;47.426;19.204;2023-04-25T05:39:08;2.80;;;1.77;;
51266;SDS011;37338;47.426;19.204;2023-04-25T05:41:34;2.03;;;1.40;;
51266;SDS011;37338;47.426;19.204;2023-04-25T05:44:00;1.47;;;1.37;;
51266;SDS011;37338;47.426;19.204;2023-04-25T05:46:25;3.77;;;1.63;;
51266;SDS011;37338;47.426;19.204;2023-04-25T05:48:50;2.20;;;1.60;;
51266;SDS011;37338;47.426;19.204;2023-04-25T05:51:16;2.10;;;1.47;;
51266;SDS011;37338;47.426;19.204;2023-04-25T05:53:43;2.37;;;1.40;;
51266;SDS011;37338;47.426;19.204;2023-04-25T05:56:08;2.07;;;1.73;;
51266;SDS011;37338;47.426;19.204;2023-04-25T05:58:34;2.30;;;1.40;;
51266;SDS011;37338;47.426;19.204;2023-04-25T06:00:59;6.30;;;2.90;;
51266;SDS011;37338;47.426;19.204;2023-04-25T06:03:25;2.40;;;1.90;;
51266;SDS011;37338;47.426;19.204;2023-04-25T06:05:50;2.13;;;1.43;;
51266;SDS011;37338;47.426;19.204;2023-04-25T06:08:16;2.10;;;1.60;;
51266;SDS011;37338;47.426;19.204;2023-04-25T06:10:41;4.40;;;1.97;;
51266;SDS011;37338;47.426;19.204;2023-04-25T06:13:07;4.23;;;2.20;;
51266;SDS011;37338;47.426;19.204;2023-04-25T06:15:32;4.97;;;1.80;;
51266;SDS011;37338;47.426;19.204;2023-04-25T06:17:58;3.20;;;1.77;;
51266;SDS011;37338;47.426;19.204;2023-04-25T06:20:24;4.83;;;1.70;;
51266;SDS011;37338;47.426;19.204;2023-04-25T06:22:49;3.03;;;2.10;;
51266;SDS011;37338;47.426;19.204;2023-04-25T06:25:16;7.67;;;2.23;;
51266;SDS011;37338;47.426;19.204;2023-04-25T06:27:42;6.00;;;2.57;;
51266;SDS011;37338;47.426;19.204;2023-04-25T06:30:07;2.27;;;1.90;;
51266;SDS011;37338;47.426;19.204;2023-04-25T06:32:33;3.70;;;2.77;;
51266;SDS011;37338;47.426;19.204;2023-04-25T06:34:59;5.23;;;3.00;;
51266;SDS011;37338;47.426;19.204;2023-04-25T06:37:25;4.20;;;2.53;;
51266;SDS011;37338;47.426;19.204;2023-04-25T06:39:50;2.93;;;2.40;;
51266;SDS011;37338;47.426;19.204;2023-04-25T06:42:16;4.57;;;3.03;;
51266;SDS011;37338;47.426;19.204;2023-04-25T06:44:41;4.97;;;2.93;;
51266;SDS011;37338;47.426;19.204;2023-04-25T06:47:07;3.17;;;2.37;;
51266;SDS011;37338;47.426;19.204;2023-04-25T06:49:32;8.10;;;3.00;;
51266;SDS011;37338;47.426;19.204;2023-04-25T06:51:57;3.37;;;3.03;;
51266;SDS011;37338;47.426;19.204;2023-04-25T06:54:23;5.10;;;3.43;;
51266;SDS011;37338;47.426;19.204;2023-04-25T06:56:49;8.33;;;3.27;;
51266;SDS011;37338;47.426;19.204;2023-04-25T06:59:15;4.20;;;3.40;;
51266;SDS011;37338;47.426;19.204;2023-04-25T07:01:40;6.10;;;3.33;;
51266;SDS011;37338;47.426;19.204;2023-04-25T07:04:06;3.37;;;3.07;;
51266;SDS011;37338;47.426;19.204;2023-04-25T07:06:31;3.97;;;3.50;;
51266;SDS011;37338;47.426;19.204;2023-04-25T07:08:57;5.37;;;3.83;;
51266;SDS011;37338;47.426;19.204;2023-04-25T07:11:22;5.53;;;3.33;;
51266;SDS011;37338;47.426;19.204;2023-04-25T07:13:48;3.87;;;3.57;;
51266;SDS011;37338;47.426;19.204;2023-04-25T07:16:13;5.77;;;4.47;;
51266;SDS011;37338;47.426;19.204;2023-04-25T07:18:38;3.87;;;3.47;;
51266;SDS011;37338;47.426;19.204;2023-04-25T07:21:04;4.93;;;3.67;;
51266;SDS011;37338;47.426;19.204;2023-04-25T07:23:29;3.57;;;3.27;;
51266;SDS011;37338;47.426;19.204;2023-04-25T07:25:55;4.00;;;3.60;;
51266;SDS011;37338;47.426;19.204;2023-04-25T07:28:21;4.80;;;3.33;;
51266;SDS011;37338;47.426;19.204;2023-04-25T07:30:46;7.90;;;4.20;;
51266;SDS011;37338;47.426;19.204;2023-04-25T07:33:12;5.03;;;2.77;;
51266;SDS011;37338;47.426;19.204;2023-04-25T07:35:37;6.23;;;3.37;;
51266;SDS011;37338;47.426;19.204;2023-04-25T07:38:02;3.20;;;2.90;;
51266;SDS011;37338;47.426;19.204;2023-04-25T07:40:28;3.60;;;3.30;;
51266;SDS011;37338;47.426;19.204;2023-04-25T07:42:54;3.83;;;2.63;;
51266;SDS011;37338;47.426;19.204;2023-04-25T07:45:19;4.47;;;2.90;;
51266;SDS011;37338;47.426;19.204;2023-04-25T07:47:44;5.57;;;2.93;;
51266;SDS011;37338;47.426;19.204;2023-04-25T07:50:10;5.17;;;2.87;;
51266;SDS011;37338;47.426;19.204;2023-04-25T07:52:36;3.50;;;3.20;;
51266;SDS011;37338;47.426;19.204;2023-04-25T07:55:01;4.97;;;3.07;;
51266;SDS011;37338;47.426;19.204;2023-04-25T07:57:26;3.47;;;3.17;;
51266;SDS011;37338;47.426;19.204;2023-04-25T07:59:52;3.60;;;2.60;;
51266;SDS011;37338;47.426;19.204;2023-04-25T08:02:17;3.17;;;2.93;;
51266;SDS011;37338;47.426;19.204;2023-04-25T08:04:43;4.00;;;2.43;;
51266;SDS011;37338;47.426;19.204;2023-04-25T08:07:08;2.77;;;2.57;;
51266;SDS011;37338;47.426;19.204;2023-04-25T08:09:34;6.33;;;3.20;;
51266;SDS011;37338;47.426;19.204;2023-04-25T08:12:01;2.67;;;2.33;;
51266;SDS011;37338;47.426;19.204;2023-04-25T08:14:27;3.95;;;2.60;;
51266;SDS011;37338;47.426;19.204;2023-04-25T08:16:56;2.78;;;2.58;;
51266;SDS011;37338;47.426;19.204;2023-04-25T08:19:21;3.63;;;2.65;;
51266;SDS011;37338;47.426;19.204;2023-04-25T08:21:47;2.72;;;2.42;;
51266;SDS011;37338;47.426;19.204;2023-04-25T08:24:12;2.75;;;2.28;;
51266;SDS011;37338;47.426;19.204;2023-04-25T08:26:37;3.05;;;2.45;;
51266;SDS011;37338;47.426;19.204;2023-04-25T08:29:04;4.38;;;1.73;;
51266;SDS011;37338;47.426;19.204;2023-04-25T08:31:30;3.17;;;1.98;;
51266;SDS011;37338;47.426;19.204;2023-04-25T08:33:55;3.20;;;2.08;;
51266;SDS011;37338;47.426;19.204;2023-04-25T08:36:21;6.25;;;1.70;;
51266;SDS011;37338;47.426;19.204;2023-04-25T08:38:46;2.25;;;2.05;;
51266;SDS011;37338;47.426;19.204;2023-04-25T08:41:12;2.20;;;1.70;;
51266;SDS011;37338;47.426;19.204;2023-04-25T08:43:38;2.10;;;1.50;;
51266;SDS011;37338;47.426;19.204;2023-04-25T08:46:07;5.25;;;1.80;;
51266;SDS011;37338;47.426;19.204;2023-04-25T08:48:33;1.88;;;1.70;;
51266;SDS011;37338;47.426;19.204;2023-04-25T08:51:01;2.83;;;1.50;;
51266;SDS011;37338;47.426;19.204;2023-04-25T08:53:29;2.33;;;1.58;;
51266;SDS011;37338;47.426;19.204;2023-04-25T08:55:56;2.03;;;1.65;;
51266;SDS011;37338;47.426;19.204;2023-04-25T08:58:23;1.95;;;1.77;;
51266;SDS011;37338;47.426;19.204;2023-04-25T09:00:49;2.00;;;1.55;;
51266;SDS011;37338;47.426;19.204;2023-04-25T09:03:16;4.07;;;1.60;;
51266;SDS011;37338;47.426;19.204;2023-04-25T09:05:42;2.55;;;1.40;;
51266;SDS011;37338;47.426;19.204;2023-04-25T09:08:08;5.38;;;1.60;;
51266;SDS011;37338;47.426;19.204;2023-04-25T09:10:33;3.42;;;2.05;;
51266;SDS011;37338;47.426;19.204;2023-04-25T09:13:02;7.00;;;2.22;;
51266;SDS011;37338;47.426;19.204;2023-04-25T09:15:29;2.05;;;1.65;;
51266;SDS011;37338;47.426;19.204;2023-04-25T09:17:58;1.88;;;1.70;;
51266;SDS011;37338;47.426;19.204;2023-04-25T09:20:24;5.82;;;1.77;;
51266;SDS011;37338;47.426;19.204;2023-04-25T09:22:59;1.83;;;1.73;;
51266;SDS011;37338;47.426;19.204;2023-04-25T09:25:26;1.95;;;1.80;;
51266;SDS011;37338;47.426;19.204;2023-04-25T09:27:53;1.88;;;1.75;;
51266;SDS011;37338;47.426;19.204;2023-04-25T09:30:26;2.85;;;1.73;;
51266;SDS011;37338;47.426;19.204;2023-04-25T09:32:56;3.83;;;2.05;;
51266;SDS011;37338;47.426;19.204;2023-04-25T09:35:23;1.73;;;1.45;;
51266;SDS011;37338;47.426;19.204;2023-04-25T09:37:50;1.38;;;1.25;;
51266;SDS011;37338;47.426;19.204;2023-04-25T09:40:16;1.73;;;1.63;;
51266;SDS011;37338;47.426;19.204;2023-04-25T09:42:43;4.15;;;1.60;;
51266;SDS011;37338;47.426;19.204;2023-04-25T09:45:08;3.00;;;1.55;;
51266;SDS011;37338;47.426;19.204;2023-04-25T09:47:37;2.10;;;1.40;;
51266;SDS011;37338;47.426;19.204;2023-04-25T09:50:04;2.55;;;1.67;;
51266;SDS011;37338;47.426;19.204;2023-04-25T09:52:40;2.35;;;1.85;;
51266;SDS011;37338;47.426;19.204;2023-04-25T09:55:05;3.58;;;1.80;;
51266;SDS011;37338;47.426;19.204;2023-04-25T09:57:31;4.20;;;1.23;;
51266;SDS011;37338;47.426;19.204;2023-04-25T09:59:56;3.08;;;1.55;;
51266;SDS011;37338;47.426;19.204;2023-04-25T10:02:26;1.67;;;1.58;;
51266;SDS011;37338;47.426;19.204;2023-04-25T10:04:52;3.17;;;1.27;;
51266;SDS011;37338;47.426;19.204;2023-04-25T10:07:23;5.90;;;1.48;;
51266;SDS011;37338;47.426;19.204;2023-04-25T10:09:52;2.50;;;0.95;;
51266;SDS011;37338;47.426;19.204;2023-04-25T10:12:20;0.82;;;0.50;;
51266;SDS011;37338;47.426;19.204;2023-04-25T10:14:46;3.03;;;1.00;;
51266;SDS011;37338;47.426;19.204;2023-04-25T10:17:11;1.25;;;0.80;;
51266;SDS011;37338;47.426;19.204;2023-04-25T10:19:37;2.35;;;0.70;;
51266;SDS011;37338;47.426;19.204;2023-04-25T10:24:42;7.65;;;0.65;;
51266;SDS011;37338;47.426;19.204;2023-04-25T10:27:08;7.80;;;0.75;;
51266;SDS011;37338;47.426;19.204;2023-04-25T10:29:34;1.02;;;0.63;;
51266;SDS011;37338;47.426;19.204;2023-04-25T10:32:00;0.68;;;0.60;;
51266;SDS011;37338;47.426;19.204;2023-04-25T10:34:38;3.05;;;0.43;;
51266;SDS011;37338;47.426;19.204;2023-04-25T10:37:05;0.60;;;0.60;;
51266;SDS011;37338;47.426;19.204;2023-04-25T10:39:33;1.85;;;0.63;;
51266;SDS011;37338;47.426;19.204;2023-04-25T10:41:59;3.45;;;0.98;;
51266;SDS011;37338;47.426;19.204;2023-04-25T10:44:30;3.17;;;0.75;;
51266;SDS011;37338;47.426;19.204;2023-04-25T10:46:56;0.50;;;0.40;;
51266;SDS011;37338;47.426;19.204;2023-04-25T10:49:29;1.75;;;0.80;;
51266;SDS011;37338;47.426;19.204;2023-04-25T10:54:51;3.00;;;0.47;;
51266;SDS011;37338;47.426;19.204;2023-04-25T11:02:59;5.88;;;0.73;;
51266;SDS011;37338;47.426;19.204;2023-04-25T11:07:51;3.05;;;0.40;;
51266;SDS011;37338;47.426;19.204;2023-04-25T11:10:19;1.17;;;0.30;;
51266;SDS011;37338;47.426;19.204;2023-04-25T11:12:45;0.30;;;0.30;;
51266;SDS011;37338;47.426;19.204;2023-04-25T11:15:12;0.30;;;0.30;;
51266;SDS011;37338;47.426;19.204;2023-04-25T11:17:38;0.55;;;0.40;;
51266;SDS011;37338;47.426;19.204;2023-04-25T11:20:05;1.23;;;0.43;;
51266;SDS011;37338;47.426;19.204;2023-04-25T11:22:33;7.03;;;0.60;;
51266;SDS011;37338;47.426;19.204;2023-04-25T11:25:04;0.63;;;0.43;;
51266;SDS011;37338;47.426;19.204;2023-04-25T11:27:30;8.50;;;0.60;;
51266;SDS011;37338;47.426;19.204;2023-04-25T11:29:55;20.35;;;1.10;;
51266;SDS011;37338;47.426;19.204;2023-04-25T11:32:21;3.70;;;0.60;;
51266;SDS011;37338;47.426;19.204;2023-04-25T11:34:46;0.82;;;0.38;;
51266;SDS011;37338;47.426;19.204;2023-04-25T11:37:12;1.48;;;0.35;;
51266;SDS011;37338;47.426;19.204;2023-04-25T11:39:38;1.83;;;0.32;;
51266;SDS011;37338;47.426;19.204;2023-04-25T11:42:07;3.22;;;0.50;;
51266;SDS011;37338;47.426;19.204;2023-04-25T11:44:33;0.52;;;0.30;;
51266;SDS011;37338;47.426;19.204;2023-04-25T11:46:59;1.85;;;0.30;;
51266;SDS011;37338;47.426;19.204;2023-04-25T11:49:25;3.20;;;0.30;;
51266;SDS011;37338;47.426;19.204;2023-04-25T11:51:56;4.28;;;0.40;;
51266;SDS011;37338;47.426;19.204;2023-04-25T11:54:22;1.20;;;0.50;;
51266;SDS011;37338;47.426;19.204;2023-04-25T11:56:47;0.32;;;0.30;;
51266;SDS011;37338;47.426;19.204;2023-04-25T11:59:13;0.60;;;0.40;;
51266;SDS011;37338;47.426;19.204;2023-04-25T12:01:47;4.53;;;0.30;;
51266;SDS011;37338;47.426;19.204;2023-04-25T12:06:41;2.45;;;0.30;;
51266;SDS011;37338;47.426;19.204;2023-04-25T12:09:08;0.40;;;0.40;;
51266;SDS011;37338;47.426;19.204;2023-04-25T12:11:41;0.57;;;0.30;;
51266;SDS011;37338;47.426;19.204;2023-04-25T12:14:08;0.28;;;0.28;;
51266;SDS011;37338;47.426;19.204;2023-04-25T12:16:44;2.00;;;0.40;;
51266;SDS011;37338;47.426;19.204;2023-04-25T12:19:13;7.40;;;1.65;;
51266;SDS011;37338;47.426;19.204;2023-04-25T12:21:39;2.15;;;0.35;;
51266;SDS011;37338;47.426;19.204;2023-04-25T12:24:14;1.27;;;0.30;;
51266;SDS011;37338;47.426;19.204;2023-04-25T12:26:50;6.22;;;0.40;;
51266;SDS011;37338;47.426;19.204;2023-04-25T12:29:17;0.43;;;0.32;;
51266;SDS011;37338;47.426;19.204;2023-04-25T12:31:44;8.20;;;0.30;;
51266;SDS011;37338;47.426;19.204;2023-04-25T12:34:10;1.00;;;0.30;;
51266;SDS011;37338;47.426;19.204;2023-04-25T12:36:51;3.13;;;1.02;;
51266;SDS011;37338;47.426;19.204;2023-04-25T12:39:20;4.28;;;0.60;;
51266;SDS011;37338;47.426;19.204;2023-04-25T12:41:47;2.38;;;1.15;;
51266;SDS011;37338;47.426;19.204;2023-04-25T12:44:13;7.00;;;0.90;;
51266;SDS011;37338;47.426;19.204;2023-04-25T12:46:39;2.22;;;0.55;;
51266;SDS011;37338;47.426;19.204;2023-04-25T12:49:06;0.55;;;0.52;;
51266;SDS011;37338;47.426;19.204;2023-04-25T12:51:32;0.60;;;0.60;;
51266;SDS011;37338;47.426;19.204;2023-04-25T12:53:59;3.88;;;1.10;;
51266;SDS011;37338;47.426;19.204;2023-04-25T12:56:25;2.83;;;0.50;;
51266;SDS011;37338;47.426;19.204;2023-04-25T12:58:51;2.15;;;0.65;;
51266;SDS011;37338;47.426;19.204;2023-04-25T13:01:17;0.70;;;0.70;;
51266;SDS011;37338;47.426;19.204;2023-04-25T13:03:42;4.03;;;0.93;;
51266;SDS011;37338;47.426;19.204;2023-04-25T13:06:08;3.00;;;1.15;;
51266;SDS011;37338;47.426;19.204;2023-04-25T13:08:33;2.33;;;0.30;;
51266;SDS011;37338;47.426;19.204;2023-04-25T13:11:00;4.60;;;0.55;;
51266;SDS011;37338;47.426;19.204;2023-04-25T13:13:25;2.25;;;0.50;;
51266;SDS011;37338;47.426;19.204;2023-04-25T13:15:52;16.08;;;0.95;;
51266;SDS011;37338;47.426;19.204;2023-04-25T13:18:18;5.20;;;0.50;;
51266;SDS011;37338;47.426;19.204;2023-04-25T13:20:44;0.82;;;0.40;;
51266;SDS011;37338;47.426;19.204;2023-04-25T13:23:11;2.85;;;0.47;;
51266;SDS011;37338;47.426;19.204;2023-04-25T13:25:36;4.20;;;0.50;;
51266;SDS011;37338;47.426;19.204;2023-04-25T13:28:02;6.45;;;0.60;;
51266;SDS011;37338;47.426;19.204;2023-04-25T13:30:28;3.72;;;0.77;;
51266;SDS011;37338;47.426;19.204;2023-04-25T13:32:53;3.70;;;1.08;;
51266;SDS011;37338;47.426;19.204;2023-04-25T13:35:21;3.08;;;0.98;;
51266;SDS011;37338;47.426;19.204;2023-04-25T13:37:46;9.65;;;1.65;;
51266;SDS011;37338;47.426;19.204;2023-04-25T13:40:11;5.50;;;1.10;;
51266;SDS011;37338;47.426;19.204;2023-04-25T13:42:37;6.55;;;0.77;;
51266;SDS011;37338;47.426;19.204;2023-04-25T13:45:03;4.90;;;0.68;;
51266;SDS011;37338;47.426;19.204;2023-04-25T13:47:29;0.73;;;0.73;;
51266;SDS011;37338;47.426;19.204;2023-04-25T13:49:55;8.50;;;1.40;;
51266;SDS011;37338;47.426;19.204;2023-04-25T13:52:21;5.05;;;2.13;;
51266;SDS011;37338;47.426;19.204;2023-04-25T13:54:46;13.20;;;1.95;;
51266;SDS011;37338;47.426;19.204;2023-04-25T13:57:12;6.53;;;1.13;;
51266;SDS011;37338;47.426;19.204;2023-04-25T13:59:38;6.28;;;1.50;;
51266;SDS011;37338;47.426;19.204;2023-04-25T14:02:03;5.38;;;0.85;;
51266;SDS011;37338;47.426;19.204;2023-04-25T14:04:29;4.13;;;0.98;;
51266;SDS011;37338;47.426;19.204;2023-04-25T14:06:55;3.50;;;1.08;;
51266;SDS011;37338;47.426;19.204;2023-04-25T14:09:20;6.22;;;1.60;;
51266;SDS011;37338;47.426;19.204;2023-04-25T14:11:50;5.88;;;1.25;;
51266;SDS011;37338;47.426;19.204;2023-04-25T14:14:17;5.38;;;1.25;;
51266;SDS011;37338;47.426;19.204;2023-04-25T14:16:42;11.40;;;1.50;;
51266;SDS011;37338;47.426;19.204;2023-04-25T14:19:08;5.13;;;0.80;;
51266;SDS011;37338;47.426;19.204;2023-04-25T14:21:33;13.27;;;1.08;;
51266;SDS011;37338;47.426;19.204;2023-04-25T14:23:58;2.35;;;1.17;;
51266;SDS011;37338;47.426;19.204;2023-04-25T14:26:24;13.98;;;2.03;;
51266;SDS011;37338;47.426;19.204;2023-04-25T14:28:50;12.57;;;2.13;;
51266;SDS011;37338;47.426;19.204;2023-04-25T14:31:16;1.60;;;1.00;;
51266;SDS011;37338;47.426;19.204;2023-04-25T14:33:42;6.53;;;0.90;;
51266;SDS011;37338;47.426;19.204;2023-04-25T14:36:08;2.55;;;1.00;;
51266;SDS011;37338;47.426;19.204;2023-04-25T14:38:33;3.42;;;0.77;;
51266;SDS011;37338;47.426;19.204;2023-04-25T14:40:59;14.52;;;1.67;;
51266;SDS011;37338;47.426;19.204;2023-04-25T14:43:24;2.03;;;1.00;;